sensor_id;sensor_type;location;lat;lon;timestamp;P1;durP1;ratioP1;P2;durP2;ratioP2
65924;SDS011;66010;52.084;5.412;2023-01-16T01:23:59;3.60;;;1.10;;
65924;SDS011;66010;52.084;5.412;2023-01-16T01:26:26;2.92;;;1.25;;
65924;SDS011;66010;52.084;5.412;2023-01-16T01:28:53;2.67;;;1.58;;
65924;SDS011;66010;52.084;5.412;2023-01-16T01:31:19;2.25;;;1.20;;
65924;SDS011;66010;52.084;5.412;2023-01-16T01:33:46;2.40;;;1.10;;
65924;SDS011;66010;52.084;5.412;2023-01-16T01:36:13;2.58;;;1.30;;
65924;SDS011;66010;52.084;5.412;2023-01-16T01:38:39;1.50;;;0.90;;
65924;SDS011;66010;52.084;5.412;2023-01-16T01:43:44;5.15;;;2.22;;
65924;SDS011;66010;52.084;5.412;2023-01-16T01:46:36;6.30;;;2.60;;
65924;SDS011;66010;52.084;5.412;2023-01-16T01:49:00;8.60;;;2.70;;
65924;SDS011;66010;52.084;5.412;2023-01-16T01:51:28;6.45;;;2.65;;
65924;SDS011;66010;52.084;5.412;2023-01-16T01:53:57;9.40;;;2.40;;
65924;SDS011;66010;52.084;5.412;2023-01-16T01:59:11;9.93;;;2.80;;
65924;SDS011;66010;52.084;5.412;2023-01-16T02:01:38;9.25;;;3.00;;
65924;SDS011;66010;52.084;5.412;2023-01-16T02:04:07;6.75;;;2.03;;
65924;SDS011;66010;52.084;5.412;2023-01-16T02:06:39;6.28;;;2.50;;
65924;SDS011;66010;52.084;5.412;2023-01-16T02:09:07;12.77;;;2.70;;
65924;SDS011;66010;52.084;5.412;2023-01-16T02:11:34;8.02;;;2.45;;
65924;SDS011;66010;52.084;5.412;2023-01-16T02:14:06;9.77;;;2.38;;
65924;SDS011;66010;52.084;5.412;2023-01-16T02:16:34;7.68;;;1.85;;
65924;SDS011;66010;52.084;5.412;2023-01-16T02:19:27;5.80;;;2.13;;
65924;SDS011;66010;52.084;5.412;2023-01-16T02:24:39;6.72;;;2.13;;
65924;SDS011;66010;52.084;5.412;2023-01-16T02:27:26;6.53;;;2.33;;
65924;SDS011;66010;52.084;5.412;2023-01-16T02:42:56;4.18;;;1.70;;
65924;SDS011;66010;52.084;5.412;2023-01-16T02:45:28;5.97;;;1.52;;
65924;SDS011;66010;52.084;5.412;2023-01-16T02:48:02;6.40;;;1.75;;
65924;SDS011;66010;52.084;5.412;2023-01-16T02:50:36;6.13;;;1.73;;
65924;SDS011;66010;52.084;5.412;2023-01-16T02:55:37;4.35;;;1.50;;
65924;SDS011;66010;52.084;5.412;2023-01-16T02:58:05;4.55;;;1.90;;
65924;SDS011;66010;52.084;5.412;2023-01-16T03:02:59;5.65;;;1.50;;
65924;SDS011;66010;52.084;5.412;2023-01-16T03:05:26;4.15;;;1.42;;
65924;SDS011;66010;52.084;5.412;2023-01-16T03:18:10;5.20;;;1.60;;
65924;SDS011;66010;52.084;5.412;2023-01-16T03:23:22;5.95;;;1.75;;
65924;SDS011;66010;52.084;5.412;2023-01-16T03:26:00;4.10;;;1.33;;
65924;SDS011;66010;52.084;5.412;2023-01-16T03:33:46;5.18;;;1.40;;
65924;SDS011;66010;52.084;5.412;2023-01-16T03:36:21;4.55;;;1.30;;
65924;SDS011;66010;52.084;5.412;2023-01-16T03:38:50;5.95;;;1.50;;
65924;SDS011;66010;52.084;5.412;2023-01-16T03:41:19;5.07;;;1.40;;
65924;SDS011;66010;52.084;5.412;2023-01-16T03:43:48;4.60;;;1.55;;
65924;SDS011;66010;52.084;5.412;2023-01-16T03:46:16;6.15;;;1.50;;
65924;SDS011;66010;52.084;5.412;2023-01-16T03:48:46;5.25;;;1.35;;
65924;SDS011;66010;52.084;5.412;2023-01-16T03:51:24;6.43;;;1.65;;
65924;SDS011;66010;52.084;5.412;2023-01-16T03:54:06;6.43;;;1.42;;
65924;SDS011;66010;52.084;5.412;2023-01-16T03:56:37;4.47;;;1.30;;
65924;SDS011;66010;52.084;5.412;2023-01-16T03:59:06;4.72;;;1.40;;
65924;SDS011;66010;52.084;5.412;2023-01-16T04:09:25;6.68;;;1.50;;
65924;SDS011;66010;52.084;5.412;2023-01-16T04:11:52;4.57;;;1.40;;
65924;SDS011;66010;52.084;5.412;2023-01-16T04:14:19;3.60;;;1.15;;
65924;SDS011;66010;52.084;5.412;2023-01-16T04:16:48;4.03;;;1.30;;
65924;SDS011;66010;52.084;5.412;2023-01-16T04:19:14;5.50;;;1.30;;
65924;SDS011;66010;52.084;5.412;2023-01-16T04:21:44;5.55;;;1.60;;
65924;SDS011;66010;52.084;5.412;2023-01-16T04:24:11;4.80;;;1.42;;
65924;SDS011;66010;52.084;5.412;2023-01-16T04:26:37;4.72;;;1.35;;
65924;SDS011;66010;52.084;5.412;2023-01-16T04:29:04;3.40;;;1.00;;
65924;SDS011;66010;52.084;5.412;2023-01-16T04:31:30;3.15;;;1.30;;
65924;SDS011;66010;52.084;5.412;2023-01-16T04:33:57;5.20;;;1.35;;
65924;SDS011;66010;52.084;5.412;2023-01-16T04:36:23;6.63;;;1.63;;
65924;SDS011;66010;52.084;5.412;2023-01-16T04:38:49;4.22;;;1.20;;
65924;SDS011;66010;52.084;5.412;2023-01-16T04:41:16;5.80;;;1.13;;
65924;SDS011;66010;52.084;5.412;2023-01-16T04:44:06;6.32;;;1.30;;
65924;SDS011;66010;52.084;5.412;2023-01-16T04:46:32;4.90;;;1.65;;
65924;SDS011;66010;52.084;5.412;2023-01-16T04:48:59;4.10;;;1.38;;
65924;SDS011;66010;52.084;5.412;2023-01-16T04:51:25;4.07;;;1.25;;
65924;SDS011;66010;52.084;5.412;2023-01-16T04:53:52;3.42;;;1.20;;
65924;SDS011;66010;52.084;5.412;2023-01-16T04:56:18;4.40;;;1.40;;
65924;SDS011;66010;52.084;5.412;2023-01-16T04:58:45;4.85;;;1.30;;
65924;SDS011;66010;52.084;5.412;2023-01-16T05:01:11;4.32;;;1.33;;
65924;SDS011;66010;52.084;5.412;2023-01-16T05:03:38;5.57;;;1.42;;
65924;SDS011;66010;52.084;5.412;2023-01-16T05:06:04;4.32;;;1.30;;
65924;SDS011;66010;52.084;5.412;2023-01-16T05:08:30;4.57;;;1.45;;
65924;SDS011;66010;52.084;5.412;2023-01-16T05:10:57;4.80;;;1.50;;
65924;SDS011;66010;52.084;5.412;2023-01-16T05:13:27;4.30;;;1.30;;
65924;SDS011;66010;52.084;5.412;2023-01-16T05:15:54;4.20;;;1.25;;
65924;SDS011;66010;52.084;5.412;2023-01-16T05:18:20;4.85;;;1.20;;
65924;SDS011;66010;52.084;5.412;2023-01-16T05:20:47;3.75;;;1.35;;
65924;SDS011;66010;52.084;5.412;2023-01-16T05:23:13;6.55;;;1.55;;
65924;SDS011;66010;52.084;5.412;2023-01-16T05:25:40;7.10;;;1.30;;
65924;SDS011;66010;52.084;5.412;2023-01-16T05:28:06;4.43;;;1.50;;
65924;SDS011;66010;52.084;5.412;2023-01-16T05:30:33;5.70;;;1.48;;
65924;SDS011;66010;52.084;5.412;2023-01-16T05:32:59;3.75;;;1.60;;
65924;SDS011;66010;52.084;5.412;2023-01-16T05:35:27;3.38;;;1.30;;
65924;SDS011;66010;52.084;5.412;2023-01-16T05:37:54;3.35;;;1.23;;
65924;SDS011;66010;52.084;5.412;2023-01-16T05:40:20;5.70;;;1.70;;
65924;SDS011;66010;52.084;5.412;2023-01-16T05:42:47;4.90;;;1.30;;
65924;SDS011;66010;52.084;5.412;2023-01-16T05:45:14;4.25;;;1.33;;
65924;SDS011;66010;52.084;5.412;2023-01-16T05:47:40;6.13;;;1.40;;
65924;SDS011;66010;52.084;5.412;2023-01-16T05:50:07;6.43;;;1.50;;
65924;SDS011;66010;52.084;5.412;2023-01-16T05:52:33;4.32;;;1.30;;
65924;SDS011;66010;52.084;5.412;2023-01-16T05:55:00;4.38;;;1.50;;
65924;SDS011;66010;52.084;5.412;2023-01-16T05:57:26;5.28;;;1.30;;
65924;SDS011;66010;52.084;5.412;2023-01-16T05:59:52;4.90;;;1.60;;
65924;SDS011;66010;52.084;5.412;2023-01-16T06:02:19;3.65;;;1.27;;
65924;SDS011;66010;52.084;5.412;2023-01-16T06:04:46;5.03;;;1.30;;
65924;SDS011;66010;52.084;5.412;2023-01-16T06:07:13;3.97;;;1.40;;
65924;SDS011;66010;52.084;5.412;2023-01-16T06:09:39;4.80;;;1.33;;
65924;SDS011;66010;52.084;5.412;2023-01-16T06:12:06;4.80;;;1.45;;
65924;SDS011;66010;52.084;5.412;2023-01-16T06:14:35;4.60;;;1.35;;
65924;SDS011;66010;52.084;5.412;2023-01-16T06:17:01;6.85;;;1.50;;
65924;SDS011;66010;52.084;5.412;2023-01-16T06:19:28;6.47;;;1.80;;
65924;SDS011;66010;52.084;5.412;2023-01-16T06:21:54;4.90;;;1.60;;
65924;SDS011;66010;52.084;5.412;2023-01-16T06:24:21;4.13;;;1.50;;
65924;SDS011;66010;52.084;5.412;2023-01-16T06:26:47;5.40;;;1.40;;
65924;SDS011;66010;52.084;5.412;2023-01-16T06:29:13;5.35;;;1.25;;
65924;SDS011;66010;52.084;5.412;2023-01-16T06:31:40;3.13;;;1.20;;
65924;SDS011;66010;52.084;5.412;2023-01-16T06:34:06;5.18;;;1.50;;
65924;SDS011;66010;52.084;5.412;2023-01-16T06:36:33;4.60;;;1.40;;
65924;SDS011;66010;52.084;5.412;2023-01-16T06:38:59;4.05;;;1.38;;
65924;SDS011;66010;52.084;5.412;2023-01-16T06:41:26;5.22;;;1.63;;
65924;SDS011;66010;52.084;5.412;2023-01-16T06:43:52;3.15;;;1.27;;
65924;SDS011;66010;52.084;5.412;2023-01-16T06:46:18;5.50;;;1.50;;
65924;SDS011;66010;52.084;5.412;2023-01-16T06:48:45;3.67;;;1.40;;
65924;SDS011;66010;52.084;5.412;2023-01-16T06:51:11;4.07;;;1.38;;
65924;SDS011;66010;52.084;5.412;2023-01-16T06:53:37;4.97;;;1.30;;
65924;SDS011;66010;52.084;5.412;2023-01-16T06:56:04;4.63;;;1.45;;
65924;SDS011;66010;52.084;5.412;2023-01-16T06:58:30;4.05;;;1.60;;
65924;SDS011;66010;52.084;5.412;2023-01-16T07:00:57;3.10;;;1.17;;
65924;SDS011;66010;52.084;5.412;2023-01-16T07:03:23;4.38;;;1.23;;
65924;SDS011;66010;52.084;5.412;2023-01-16T07:05:50;4.20;;;1.30;;
65924;SDS011;66010;52.084;5.412;2023-01-16T07:08:17;3.78;;;1.30;;
65924;SDS011;66010;52.084;5.412;2023-01-16T07:10:43;5.07;;;1.20;;
65924;SDS011;66010;52.084;5.412;2023-01-16T07:13:10;3.10;;;1.30;;
65924;SDS011;66010;52.084;5.412;2023-01-16T07:15:37;4.38;;;1.30;;
65924;SDS011;66010;52.084;5.412;2023-01-16T07:18:22;4.00;;;1.30;;
65924;SDS011;66010;52.084;5.412;2023-01-16T07:21:10;4.63;;;1.20;;
65924;SDS011;66010;52.084;5.412;2023-01-16T07:24:01;5.00;;;1.23;;
65924;SDS011;66010;52.084;5.412;2023-01-16T07:26:30;3.00;;;1.20;;
65924;SDS011;66010;52.084;5.412;2023-01-16T07:28:57;4.47;;;1.17;;
65924;SDS011;66010;52.084;5.412;2023-01-16T07:31:23;3.33;;;1.02;;
65924;SDS011;66010;52.084;5.412;2023-01-16T07:33:50;6.13;;;1.40;;
65924;SDS011;66010;52.084;5.412;2023-01-16T07:36:17;3.55;;;1.20;;
65924;SDS011;66010;52.084;5.412;2023-01-16T07:38:43;3.70;;;1.08;;
65924;SDS011;66010;52.084;5.412;2023-01-16T07:41:10;4.53;;;1.02;;
65924;SDS011;66010;52.084;5.412;2023-01-16T07:43:36;3.83;;;1.30;;
65924;SDS011;66010;52.084;5.412;2023-01-16T07:46:02;4.25;;;1.10;;
65924;SDS011;66010;52.084;5.412;2023-01-16T07:48:29;3.80;;;1.00;;
65924;SDS011;66010;52.084;5.412;2023-01-16T07:50:56;2.97;;;1.00;;
65924;SDS011;66010;52.084;5.412;2023-01-16T07:53:24;3.45;;;1.00;;
65924;SDS011;66010;52.084;5.412;2023-01-16T07:55:51;4.47;;;1.00;;
65924;SDS011;66010;52.084;5.412;2023-01-16T07:58:18;2.45;;;1.10;;
65924;SDS011;66010;52.084;5.412;2023-01-16T08:00:44;3.78;;;1.00;;
65924;SDS011;66010;52.084;5.412;2023-01-16T08:03:11;3.05;;;1.10;;
65924;SDS011;66010;52.084;5.412;2023-01-16T08:05:38;3.95;;;1.20;;
65924;SDS011;66010;52.084;5.412;2023-01-16T08:08:05;4.55;;;1.15;;
65924;SDS011;66010;52.084;5.412;2023-01-16T08:10:31;2.47;;;0.95;;
65924;SDS011;66010;52.084;5.412;2023-01-16T08:12:58;3.85;;;0.90;;
65924;SDS011;66010;52.084;5.412;2023-01-16T08:15:24;2.58;;;0.90;;
65924;SDS011;66010;52.084;5.412;2023-01-16T08:17:50;2.22;;;0.90;;
65924;SDS011;66010;52.084;5.412;2023-01-16T08:20:17;2.80;;;1.20;;
65924;SDS011;66010;52.084;5.412;2023-01-16T08:22:44;2.25;;;0.85;;
65924;SDS011;66010;52.084;5.412;2023-01-16T08:25:11;2.10;;;0.90;;
65924;SDS011;66010;52.084;5.412;2023-01-16T08:27:37;2.58;;;1.05;;
65924;SDS011;66010;52.084;5.412;2023-01-16T08:30:07;2.63;;;1.05;;
65924;SDS011;66010;52.084;5.412;2023-01-16T08:32:34;3.35;;;1.10;;
65924;SDS011;66010;52.084;5.412;2023-01-16T08:35:03;2.38;;;1.00;;
65924;SDS011;66010;52.084;5.412;2023-01-16T08:37:30;3.00;;;1.00;;
65924;SDS011;66010;52.084;5.412;2023-01-16T08:39:57;2.55;;;1.10;;
65924;SDS011;66010;52.084;5.412;2023-01-16T08:42:23;2.08;;;1.00;;
65924;SDS011;66010;52.084;5.412;2023-01-16T08:45:09;2.08;;;1.00;;
65924;SDS011;66010;52.084;5.412;2023-01-16T08:47:54;1.60;;;0.85;;
65924;SDS011;66010;52.084;5.412;2023-01-16T08:50:39;2.15;;;0.90;;
65924;SDS011;66010;52.084;5.412;2023-01-16T08:53:24;2.60;;;1.00;;
65924;SDS011;66010;52.084;5.412;2023-01-16T08:55:51;1.58;;;1.00;;
65924;SDS011;66010;52.084;5.412;2023-01-16T08:58:17;2.25;;;1.00;;
65924;SDS011;66010;52.084;5.412;2023-01-16T09:00:47;2.28;;;1.00;;
65924;SDS011;66010;52.084;5.412;2023-01-16T09:03:14;4.90;;;1.10;;
65924;SDS011;66010;52.084;5.412;2023-01-16T09:05:43;9.23;;;1.30;;
65924;SDS011;66010;52.084;5.412;2023-01-16T09:08:09;4.05;;;1.00;;
65924;SDS011;66010;52.084;5.412;2023-01-16T09:10:36;1.40;;;0.82;;
65924;SDS011;66010;52.084;5.412;2023-01-16T09:13:03;5.35;;;0.98;;
65924;SDS011;66010;52.084;5.412;2023-01-16T09:15:48;2.28;;;1.00;;
65924;SDS011;66010;52.084;5.412;2023-01-16T09:18:15;2.58;;;1.00;;
65924;SDS011;66010;52.084;5.412;2023-01-16T09:20:41;2.42;;;0.80;;
65924;SDS011;66010;52.084;5.412;2023-01-16T09:23:08;3.38;;;0.80;;
65924;SDS011;66010;52.084;5.412;2023-01-16T09:25:35;4.00;;;1.00;;
65924;SDS011;66010;52.084;5.412;2023-01-16T09:28:02;3.17;;;1.00;;
65924;SDS011;66010;52.084;5.412;2023-01-16T09:30:29;5.55;;;1.10;;
65924;SDS011;66010;52.084;5.412;2023-01-16T09:32:56;4.85;;;0.88;;
65924;SDS011;66010;52.084;5.412;2023-01-16T09:35:22;1.83;;;0.82;;
65924;SDS011;66010;52.084;5.412;2023-01-16T09:37:49;3.28;;;1.25;;
65924;SDS011;66010;52.084;5.412;2023-01-16T09:40:17;2.28;;;0.80;;
65924;SDS011;66010;52.084;5.412;2023-01-16T09:45:44;2.17;;;0.90;;
65924;SDS011;66010;52.084;5.412;2023-01-16T09:48:14;3.25;;;0.80;;
65924;SDS011;66010;52.084;5.412;2023-01-16T09:50:46;1.63;;;0.90;;
65924;SDS011;66010;52.084;5.412;2023-01-16T09:53:25;2.72;;;1.05;;
65924;SDS011;66010;52.084;5.412;2023-01-16T09:56:10;4.03;;;1.05;;
65924;SDS011;66010;52.084;5.412;2023-01-16T09:59:20;2.72;;;0.70;;
65924;SDS011;66010;52.084;5.412;2023-01-16T10:01:48;2.53;;;0.80;;
65924;SDS011;66010;52.084;5.412;2023-01-16T10:04:19;3.65;;;1.05;;
65924;SDS011;66010;52.084;5.412;2023-01-16T10:06:51;1.58;;;0.90;;
65924;SDS011;66010;52.084;5.412;2023-01-16T10:12:10;2.25;;;0.90;;
65924;SDS011;66010;52.084;5.412;2023-01-16T10:19:51;1.00;;;0.80;;
65924;SDS011;66010;52.084;5.412;2023-01-16T10:22:25;2.30;;;0.80;;
65924;SDS011;66010;52.084;5.412;2023-01-16T10:27:49;1.52;;;0.90;;
65924;SDS011;66010;52.084;5.412;2023-01-16T10:30:23;2.20;;;0.80;;
65924;SDS011;66010;52.084;5.412;2023-01-16T10:32:55;0.68;;;0.68;;
65924;SDS011;66010;52.084;5.412;2023-01-16T10:35:24;1.15;;;0.63;;
65924;SDS011;66010;52.084;5.412;2023-01-16T10:37:52;3.50;;;0.90;;
65924;SDS011;66010;52.084;5.412;2023-01-16T10:40:21;3.90;;;1.00;;
65924;SDS011;66010;52.084;5.412;2023-01-16T10:42:59;2.63;;;1.00;;
65924;SDS011;66010;52.084;5.412;2023-01-16T10:45:45;2.97;;;1.10;;
65924;SDS011;66010;52.084;5.412;2023-01-16T10:48:47;2.15;;;1.10;;
65924;SDS011;66010;52.084;5.412;2023-01-16T10:51:32;4.30;;;1.30;;
65924;SDS011;66010;52.084;5.412;2023-01-16T10:54:00;3.20;;;1.13;;
65924;SDS011;66010;52.084;5.412;2023-01-16T10:56:28;2.88;;;0.98;;
65924;SDS011;66010;52.084;5.412;2023-01-16T10:58:56;2.88;;;1.10;;
65924;SDS011;66010;52.084;5.412;2023-01-16T11:01:23;3.50;;;1.00;;
65924;SDS011;66010;52.084;5.412;2023-01-16T11:03:58;3.13;;;0.93;;
65924;SDS011;66010;52.084;5.412;2023-01-16T11:06:26;2.55;;;1.05;;
65924;SDS011;66010;52.084;5.412;2023-01-16T11:11:20;1.25;;;0.80;;
65924;SDS011;66010;52.084;5.412;2023-01-16T11:14:39;2.00;;;0.93;;
65924;SDS011;66010;52.084;5.412;2023-01-16T11:20:02;1.45;;;0.80;;
65924;SDS011;66010;52.084;5.412;2023-01-16T11:22:28;1.45;;;0.80;;
65924;SDS011;66010;52.084;5.412;2023-01-16T11:24:58;1.42;;;0.93;;
65924;SDS011;66010;52.084;5.412;2023-01-16T11:27:27;3.35;;;1.02;;
65924;SDS011;66010;52.084;5.412;2023-01-16T11:29:54;2.95;;;1.00;;
65924;SDS011;66010;52.084;5.412;2023-01-16T11:32:21;1.98;;;0.85;;
65924;SDS011;66010;52.084;5.412;2023-01-16T11:34:52;2.47;;;0.90;;
65924;SDS011;66010;52.084;5.412;2023-01-16T11:37:19;1.30;;;0.73;;
65924;SDS011;66010;52.084;5.412;2023-01-16T11:39:47;2.17;;;0.82;;
65924;SDS011;66010;52.084;5.412;2023-01-16T11:42:14;1.67;;;1.00;;
65924;SDS011;66010;52.084;5.412;2023-01-16T11:45:13;0.80;;;0.70;;
65924;SDS011;66010;52.084;5.412;2023-01-16T11:48:00;1.63;;;0.80;;
65924;SDS011;66010;52.084;5.412;2023-01-16T11:50:27;2.33;;;1.00;;
65924;SDS011;66010;52.084;5.412;2023-01-16T11:52:54;1.83;;;0.80;;
65924;SDS011;66010;52.084;5.412;2023-01-16T11:55:21;2.67;;;0.93;;
65924;SDS011;66010;52.084;5.412;2023-01-16T11:58:25;1.77;;;0.80;;
65924;SDS011;66010;52.084;5.412;2023-01-16T12:06:05;1.55;;;0.77;;
65924;SDS011;66010;52.084;5.412;2023-01-16T12:08:52;5.88;;;1.45;;
65924;SDS011;66010;52.084;5.412;2023-01-16T12:14:01;2.70;;;0.90;;
65924;SDS011;66010;52.084;5.412;2023-01-16T12:16:50;4.82;;;1.00;;
65924;SDS011;66010;52.084;5.412;2023-01-16T12:25:17;3.38;;;0.88;;
65924;SDS011;66010;52.084;5.412;2023-01-16T12:27:31;1.48;;;0.80;;
65924;SDS011;66010;52.084;5.412;2023-01-16T12:32:30;1.52;;;0.80;;
65924;SDS011;66010;52.084;5.412;2023-01-16T12:40:54;1.35;;;0.80;;
65924;SDS011;66010;52.084;5.412;2023-01-16T12:46:27;1.08;;;0.70;;
65924;SDS011;66010;52.084;5.412;2023-01-16T12:49:05;1.38;;;0.80;;
65924;SDS011;66010;52.084;5.412;2023-01-16T12:59:10;2.30;;;0.85;;
65924;SDS011;66010;52.084;5.412;2023-01-16T13:01:39;1.27;;;0.80;;
65924;SDS011;66010;52.084;5.412;2023-01-16T13:04:12;1.45;;;0.80;;
65924;SDS011;66010;52.084;5.412;2023-01-16T13:06:48;1.67;;;0.80;;
65924;SDS011;66010;52.084;5.412;2023-01-16T13:09:26;2.45;;;0.90;;
65924;SDS011;66010;52.084;5.412;2023-01-16T13:12:05;2.70;;;0.80;;
65924;SDS011;66010;52.084;5.412;2023-01-16T13:14:51;1.25;;;0.80;;
65924;SDS011;66010;52.084;5.412;2023-01-16T13:17:21;1.92;;;0.75;;
65924;SDS011;66010;52.084;5.412;2023-01-16T13:19:56;1.48;;;0.80;;
65924;SDS011;66010;52.084;5.412;2023-01-16T13:22:26;3.00;;;0.82;;
65924;SDS011;66010;52.084;5.412;2023-01-16T13:25:00;1.08;;;0.80;;
65924;SDS011;66010;52.084;5.412;2023-01-16T13:27:35;2.25;;;0.90;;
65924;SDS011;66010;52.084;5.412;2023-01-16T13:30:04;2.05;;;0.80;;
65924;SDS011;66010;52.084;5.412;2023-01-16T13:32:37;1.95;;;0.85;;
65924;SDS011;66010;52.084;5.412;2023-01-16T13:35:07;4.57;;;0.80;;
65924;SDS011;66010;52.084;5.412;2023-01-16T13:40:34;3.20;;;0.70;;
65924;SDS011;66010;52.084;5.412;2023-01-16T13:43:07;3.80;;;0.90;;
65924;SDS011;66010;52.084;5.412;2023-01-16T13:48:31;1.67;;;0.80;;
65924;SDS011;66010;52.084;5.412;2023-01-16T13:51:14;1.90;;;0.73;;
65924;SDS011;66010;52.084;5.412;2023-01-16T13:53:41;1.70;;;0.80;;
65924;SDS011;66010;52.084;5.412;2023-01-16T13:56:14;1.05;;;0.70;;
65924;SDS011;66010;52.084;5.412;2023-01-16T13:58:45;1.33;;;0.73;;
65924;SDS011;66010;52.084;5.412;2023-01-16T14:06:51;0.90;;;0.55;;
65924;SDS011;66010;52.084;5.412;2023-01-16T14:12:22;5.10;;;0.80;;
65924;SDS011;66010;52.084;5.412;2023-01-16T14:14:49;2.30;;;0.80;;
65924;SDS011;66010;52.084;5.412;2023-01-16T14:20:36;0.98;;;0.70;;
65924;SDS011;66010;52.084;5.412;2023-01-16T14:23:03;2.75;;;0.77;;
65924;SDS011;66010;52.084;5.412;2023-01-16T14:26:09;1.65;;;0.82;;
65924;SDS011;66010;52.084;5.412;2023-01-16T14:28:40;1.45;;;0.63;;
65924;SDS011;66010;52.084;5.412;2023-01-16T14:31:16;1.27;;;0.55;;
65924;SDS011;66010;52.084;5.412;2023-01-16T14:33:45;1.17;;;0.68;;
65924;SDS011;66010;52.084;5.412;2023-01-16T14:36:13;1.13;;;0.70;;
65924;SDS011;66010;52.084;5.412;2023-01-16T14:41:10;0.98;;;0.60;;
65924;SDS011;66010;52.084;5.412;2023-01-16T14:46:53;1.48;;;0.90;;
65924;SDS011;66010;52.084;5.412;2023-01-16T14:55:21;3.30;;;1.00;;
65924;SDS011;66010;52.084;5.412;2023-01-16T14:57:49;1.85;;;0.85;;
65924;SDS011;66010;52.084;5.412;2023-01-16T15:00:31;3.17;;;0.90;;
65924;SDS011;66010;52.084;5.412;2023-01-16T15:03:01;3.38;;;1.02;;
65924;SDS011;66010;52.084;5.412;2023-01-16T15:08:18;3.80;;;0.90;;
65924;SDS011;66010;52.084;5.412;2023-01-16T15:10:48;2.85;;;0.90;;
65924;SDS011;66010;52.084;5.412;2023-01-16T15:16:10;3.10;;;1.17;;
65924;SDS011;66010;52.084;5.412;2023-01-16T15:18:42;3.42;;;1.00;;
65924;SDS011;66010;52.084;5.412;2023-01-16T15:21:26;3.35;;;1.10;;
65924;SDS011;66010;52.084;5.412;2023-01-16T15:24:15;1.90;;;1.02;;
65924;SDS011;66010;52.084;5.412;2023-01-16T15:29:19;1.98;;;0.90;;
65924;SDS011;66010;52.084;5.412;2023-01-16T15:31:58;2.22;;;0.90;;
65924;SDS011;66010;52.084;5.412;2023-01-16T15:34:29;3.05;;;1.10;;
65924;SDS011;66010;52.084;5.412;2023-01-16T15:36:56;2.58;;;1.08;;
65924;SDS011;66010;52.084;5.412;2023-01-16T15:39:30;4.15;;;1.00;;
65924;SDS011;66010;52.084;5.412;2023-01-16T15:42:03;1.52;;;1.02;;
65924;SDS011;66010;52.084;5.412;2023-01-16T15:44:50;1.00;;;0.90;;
65924;SDS011;66010;52.084;5.412;2023-01-16T15:47:52;2.53;;;1.00;;
65924;SDS011;66010;52.084;5.412;2023-01-16T15:52:57;3.13;;;0.80;;
65924;SDS011;66010;52.084;5.412;2023-01-16T15:55:26;1.23;;;0.90;;
65924;SDS011;66010;52.084;5.412;2023-01-16T15:57:56;2.35;;;1.10;;
65924;SDS011;66010;52.084;5.412;2023-01-16T16:02:57;1.65;;;1.10;;
65924;SDS011;66010;52.084;5.412;2023-01-16T16:07:50;2.00;;;0.98;;
65924;SDS011;66010;52.084;5.412;2023-01-16T16:10:17;1.35;;;0.95;;
65924;SDS011;66010;52.084;5.412;2023-01-16T16:13:04;2.42;;;1.33;;
65924;SDS011;66010;52.084;5.412;2023-01-16T16:15:31;3.60;;;1.85;;
65924;SDS011;66010;52.084;5.412;2023-01-16T16:18:18;4.95;;;2.35;;
65924;SDS011;66010;52.084;5.412;2023-01-16T16:20:46;3.80;;;2.30;;
65924;SDS011;66010;52.084;5.412;2023-01-16T16:23:13;4.50;;;2.42;;
65924;SDS011;66010;52.084;5.412;2023-01-16T16:30:46;5.07;;;2.42;;
65924;SDS011;66010;52.084;5.412;2023-01-16T16:33:14;3.50;;;2.03;;
65924;SDS011;66010;52.084;5.412;2023-01-16T16:35:41;4.65;;;2.13;;
65924;SDS011;66010;52.084;5.412;2023-01-16T16:38:55;3.88;;;2.40;;
65924;SDS011;66010;52.084;5.412;2023-01-16T16:43:54;3.65;;;2.13;;
65924;SDS011;66010;52.084;5.412;2023-01-16T16:48:51;3.45;;;1.90;;
65924;SDS011;66010;52.084;5.412;2023-01-16T16:51:21;3.13;;;1.90;;
65924;SDS011;66010;52.084;5.412;2023-01-16T16:53:51;2.35;;;1.60;;
65924;SDS011;66010;52.084;5.412;2023-01-16T16:56:19;3.53;;;1.73;;
65924;SDS011;66010;52.084;5.412;2023-01-16T16:58:47;3.03;;;1.70;;
65924;SDS011;66010;52.084;5.412;2023-01-16T17:01:29;2.58;;;1.60;;
65924;SDS011;66010;52.084;5.412;2023-01-16T17:03:56;2.83;;;1.70;;
65924;SDS011;66010;52.084;5.412;2023-01-16T17:06:25;3.15;;;1.60;;
65924;SDS011;66010;52.084;5.412;2023-01-16T17:08:53;2.25;;;1.50;;
65924;SDS011;66010;52.084;5.412;2023-01-16T17:11:20;2.47;;;1.48;;
65924;SDS011;66010;52.084;5.412;2023-01-16T17:13:47;2.65;;;1.55;;
65924;SDS011;66010;52.084;5.412;2023-01-16T17:16:17;2.63;;;1.50;;
65924;SDS011;66010;52.084;5.412;2023-01-16T17:18:44;2.97;;;1.50;;
65924;SDS011;66010;52.084;5.412;2023-01-16T17:21:20;3.88;;;2.03;;
65924;SDS011;66010;52.084;5.412;2023-01-16T17:23:46;3.50;;;1.98;;
65924;SDS011;66010;52.084;5.412;2023-01-16T17:26:14;5.00;;;2.10;;
65924;SDS011;66010;52.084;5.412;2023-01-16T17:28:41;3.75;;;2.00;;
65924;SDS011;66010;52.084;5.412;2023-01-16T17:31:18;10.18;;;5.35;;
65924;SDS011;66010;52.084;5.412;2023-01-16T17:33:45;20.45;;;11.77;;
65924;SDS011;66010;52.084;5.412;2023-01-16T17:36:21;22.60;;;13.25;;
65924;SDS011;66010;52.084;5.412;2023-01-16T17:38:48;23.92;;;12.52;;
65924;SDS011;66010;52.084;5.412;2023-01-16T17:41:15;22.42;;;12.10;;
65924;SDS011;66010;52.084;5.412;2023-01-16T17:43:43;24.27;;;11.43;;
65924;SDS011;66010;52.084;5.412;2023-01-16T17:46:28;22.35;;;10.45;;
65924;SDS011;66010;52.084;5.412;2023-01-16T17:48:55;25.75;;;10.73;;
65924;SDS011;66010;52.084;5.412;2023-01-16T17:51:21;17.75;;;8.55;;
65924;SDS011;66010;52.084;5.412;2023-01-16T17:53:50;18.10;;;7.80;;
65924;SDS011;66010;52.084;5.412;2023-01-16T17:56:17;18.13;;;7.05;;
65924;SDS011;66010;52.084;5.412;2023-01-16T17:58:45;17.30;;;7.30;;
65924;SDS011;66010;52.084;5.412;2023-01-16T18:01:12;15.70;;;6.82;;
65924;SDS011;66010;52.084;5.412;2023-01-16T18:03:39;15.38;;;6.60;;
65924;SDS011;66010;52.084;5.412;2023-01-16T18:06:06;13.60;;;6.25;;
65924;SDS011;66010;52.084;5.412;2023-01-16T18:08:33;16.13;;;6.50;;
65924;SDS011;66010;52.084;5.412;2023-01-16T18:11:03;11.90;;;5.75;;
65924;SDS011;66010;52.084;5.412;2023-01-16T18:13:50;15.05;;;6.40;;
65924;SDS011;66010;52.084;5.412;2023-01-16T18:16:35;14.80;;;5.85;;
65924;SDS011;66010;52.084;5.412;2023-01-16T18:19:20;13.88;;;5.80;;
65924;SDS011;66010;52.084;5.412;2023-01-16T18:21:47;12.88;;;5.60;;
65924;SDS011;66010;52.084;5.412;2023-01-16T18:24:26;11.93;;;5.00;;
65924;SDS011;66010;52.084;5.412;2023-01-16T18:29:19;9.38;;;4.05;;
65924;SDS011;66010;52.084;5.412;2023-01-16T18:31:46;10.90;;;4.15;;
65924;SDS011;66010;52.084;5.412;2023-01-16T18:34:32;10.32;;;3.88;;
65924;SDS011;66010;52.084;5.412;2023-01-16T18:37:19;8.48;;;3.40;;
65924;SDS011;66010;52.084;5.412;2023-01-16T18:39:45;8.20;;;3.30;;
65924;SDS011;66010;52.084;5.412;2023-01-16T18:42:30;9.05;;;3.90;;
65924;SDS011;66010;52.084;5.412;2023-01-16T18:45:21;11.85;;;4.63;;
65924;SDS011;66010;52.084;5.412;2023-01-16T18:48:08;9.35;;;4.10;;
65924;SDS011;66010;52.084;5.412;2023-01-16T18:50:54;11.60;;;4.50;;
65924;SDS011;66010;52.084;5.412;2023-01-16T18:53:43;12.15;;;4.68;;
65924;SDS011;66010;52.084;5.412;2023-01-16T18:56:32;9.05;;;4.47;;
65924;SDS011;66010;52.084;5.412;2023-01-16T18:59:18;11.52;;;4.53;;
65924;SDS011;66010;52.084;5.412;2023-01-16T19:04:37;9.18;;;3.83;;
65924;SDS011;66010;52.084;5.412;2023-01-16T19:07:08;9.63;;;4.00;;
65924;SDS011;66010;52.084;5.412;2023-01-16T19:09:36;9.30;;;4.35;;
65924;SDS011;66010;52.084;5.412;2023-01-16T19:12:03;11.45;;;3.88;;
65924;SDS011;66010;52.084;5.412;2023-01-16T19:14:32;10.52;;;4.38;;
65924;SDS011;66010;52.084;5.412;2023-01-16T19:16:59;8.55;;;3.55;;